WetterOnline ( https://www.wetteronline.de )

Wetter aktuell Remptendorf

Aktuelles Wetter: Schleiz (502m)

6-stündlich | Neueste Meldungen
Ortszeit Temperatur Wetter
Mo, 28.11. 13:00 2.8° C bewölkt
Mo, 28.11. 7:00 1.9° C bedeckt
Mo, 28.11. 1:00 1.3° C bedeckt
So, 27.11. 19:00 1.9° C bedeckt
So, 27.11. 13:00 5.5° C wolkenlos
So, 27.11. 7:00 0.6° C wolkig
So, 27.11. 1:00 2.6° C bewölkt
Sa, 26.11. 19:00 4.8° C bedeckt
Ortszeit Temperatur Wetter
Mo, 28.11. 13:30 3.0° C bewölkt
Mo, 28.11. 13:20 3.0° C bewölkt
Mo, 28.11. 13:10 3.1° C bedeckt
Mo, 28.11. 13:00 2.8° C bewölkt
Mo, 28.11. 12:50 2.8° C bewölkt
Mo, 28.11. 12:40 2.5° C bewölkt
Mo, 28.11. 12:30 2.2° C bewölkt
Mo, 28.11. 12:00 2.0° C bedeckt
Mo, 28.11. 11:30 2.3° C bewölkt
Mo, 28.11. 11:00 2.0° C bedeckt
Mo, 28.11. 10:30 1.7° C bedeckt
Ortszeit Relative Feuchte Sichtweite
Mo, 28.11. 13:00 78% 30 km
Mo, 28.11. 7:00 81% 40 km
Mo, 28.11. 1:00 88% 30 km
So, 27.11. 19:00 87% 30 km
So, 27.11. 13:00 80% 30 km
So, 27.11. 7:00 90% 35 km
So, 27.11. 1:00 92% 26 km
Sa, 26.11. 19:00 89% 30 km
Ortszeit Relative Feuchte Sichtweite
Mo, 28.11. 13:30 78% 35 km
Mo, 28.11. 13:20 78% -
Mo, 28.11. 13:10 78% -
Mo, 28.11. 13:00 78% 30 km
Mo, 28.11. 12:50 78% -
Mo, 28.11. 12:40 81% -
Mo, 28.11. 12:30 81% 30 km
Mo, 28.11. 12:00 81% 30 km
Mo, 28.11. 11:30 80% 40 km
Mo, 28.11. 11:00 81% 35 km
Mo, 28.11. 10:30 82% 30 km
Ortszeit Niederschlagsmenge Niederschlagsart
Mo, 28.11. 13:00 0.0 l/m2 in 6 Std. -
Mo, 28.11. 7:00 0.0 l/m2 in 12 Std. -
Mo, 28.11. 1:00 0.0 l/m2 in 6 Std. -
So, 27.11. 19:00 0.0 l/m2 in 12 Std. -
So, 27.11. 13:00 0.0 l/m2 in 6 Std. -
So, 27.11. 7:00 0.0 l/m2 in 12 Std. -
So, 27.11. 1:00 0.0 l/m2 in 6 Std. -
Sa, 26.11. 19:00 0.0 l/m2 in 12 Std. -
Ortszeit Niederschlagsmenge Niederschlagsart
Mo, 28.11. 13:30 0.0 l/m2 in 1 Std. -
Mo, 28.11. 13:20 keine Meldung -
Mo, 28.11. 13:10 keine Meldung -
Mo, 28.11. 13:00 0.0 l/m2 in 1 Std. -
Mo, 28.11. 12:50 keine Meldung -
Mo, 28.11. 12:40 keine Meldung -
Mo, 28.11. 12:30 0.0 l/m2 in 1 Std. -
Mo, 28.11. 12:00 0.0 l/m2 in 1 Std. -
Mo, 28.11. 11:30 0.0 l/m2 in 1 Std. -
Mo, 28.11. 11:00 0.0 l/m2 in 1 Std. -
Mo, 28.11. 10:30 0.0 l/m2 in 1 Std. -
Ortszeit Stärke Spitze Richtung
km/h Bft. km/h Grad Sektor
Mo, 28.11. 13:00 9 2 43 200° S
Mo, 28.11. 7:00 22 4 37 160° S
Mo, 28.11. 1:00 22 4 43 160° S
So, 27.11. 19:00 7 2 32 200° S
So, 27.11. 13:00 13 3 26 180° S
So, 27.11. 7:00 14 3 22 180° S
So, 27.11. 1:00 9 2 20 200° S
Sa, 26.11. 19:00 7 2 22 240° SW
Ortszeit Stärke Spitze Richtung
km/h Bft. km/h Grad Sektor
Mo, 28.11. 13:30 14 3 25 170° S
Mo, 28.11. 13:20 14 3 - 170° S
Mo, 28.11. 13:10 9 2 - 190° S
Mo, 28.11. 13:00 9 2 31 200° S
Mo, 28.11. 12:50 11 2 - 170° S
Mo, 28.11. 12:40 13 3 - 160° S
Mo, 28.11. 12:30 13 3 31 170° S
Mo, 28.11. 12:00 18 3 32 180° S
Mo, 28.11. 11:30 14 3 25 180° S
Mo, 28.11. 11:00 11 2 36 150° SO
Mo, 28.11. 10:30 14 3 29 150° SO
Ortszeit Untergrenze Bedeckung Gattung
total tief tief mittel hoch
Mo, 28.11. 13:00 1500 m 8/8 7/8 - - -
Mo, 28.11. 7:00 2700 m 8/8 8/8 - - -
Mo, 28.11. 1:00 2400 m 8/8 8/8 - - -
So, 27.11. 19:00 3900 m 8/8 8/8 - - -
So, 27.11. 13:00 - 0/8 0/8 - - -
So, 27.11. 7:00 10500 m 8/8 0/8 - - -
So, 27.11. 1:00 180 m 7/8 7/8 - - -
Sa, 26.11. 19:00 420 m 8/8 8/8 - - -
Ortszeit Bedeckungsgrad in Achtel und Wolkenuntergrenze
Mo, 28.11. 13:30 1(1800m) 5(2400m) 8(3000m)
Mo, 28.11. 13:20 1(1800m) 5(2400m) 8(3000m)
Mo, 28.11. 13:10 8
Mo, 28.11. 13:00 1(1500m) 7(2400m) 8(3300m)
Mo, 28.11. 12:50 1(1500m) 7(2400m) 8(3300m)
Mo, 28.11. 12:40 7
Mo, 28.11. 12:30 5(2100m) 8(3000m)
Mo, 28.11. 12:00 1(1500m) 8(2700m) 8(3000m)
Mo, 28.11. 11:30 3(1800m) 4(2400m) 8(3000m)
Mo, 28.11. 11:00 8(3000m)
Mo, 28.11. 10:30 8(3000m)
Ortszeit Luftdruck NN (hPa) Tendenz (hPa in 3 Std.)
Mo, 28.11. 13:00 1015 - 0,5
Mo, 28.11. 7:00 1016 - 1,5
Mo, 28.11. 1:00 1020 - 1,9
So, 27.11. 19:00 1023 - 2,1
So, 27.11. 13:00 1026 - 1,5
So, 27.11. 7:00 1030 - 0,9
So, 27.11. 1:00 1032 - 0,2
Sa, 26.11. 19:00 1032 + 0,7
Ortszeit Luftdruck NN (hPa) Tendenz (hPa in 3 Std.)
Mo, 28.11. 13:30 1015 - 0,4
Mo, 28.11. 13:20 1015 keine Meldung
Mo, 28.11. 13:10 1015 keine Meldung
Mo, 28.11. 13:00 1015 - 0,5
Mo, 28.11. 12:50 1015 keine Meldung
Mo, 28.11. 12:40 1015 keine Meldung
Mo, 28.11. 12:30 1015 + 0,1
Mo, 28.11. 12:00 1016 + 0,2
Mo, 28.11. 11:30 1016 - 0,1
Mo, 28.11. 11:00 1016 - 0,6
Mo, 28.11. 10:30 1016 - 0,4
Ortszeit Schneehöhe (cm)
Mo, 28.11. 13:00 0
Mo, 28.11. 7:00 0
Mo, 28.11. 1:00 0
So, 27.11. 19:00 0
So, 27.11. 13:00 0
So, 27.11. 7:00 0
So, 27.11. 1:00 0
Sa, 26.11. 19:00 0
Ortszeit Schneehöhe (cm)
Mo, 28.11. 13:30 0
Mo, 28.11. 13:20 0
Mo, 28.11. 13:10 0
Mo, 28.11. 13:00 0
Mo, 28.11. 12:50 0
Mo, 28.11. 12:40 0
Mo, 28.11. 12:30 0
Mo, 28.11. 12:00 0
Mo, 28.11. 11:30 0
Mo, 28.11. 11:00 0
Mo, 28.11. 10:30 0
Link zu dieser Seite / Seite empfehlen

Das Wetter in ...